Wetterdaten: Woche 11.03.13 - 17.03.13 (KW11)
Datum Zeit Temperatur Luftfeuchte Luftdruck Niederschlag Windrichtung Sonnenschein Solar Wind
11.03.2013 00:00 5,3 C 93 % 997,7 hPa 0,0 l/m W 0,00 h 0 W/m 2,1 km/h (1 Bft)
11.03.2013 01:00 4,8 C 92 % 997,9 hPa 0,0 l/m N 0,00 h 0 W/m 0,7 km/h (0 Bft)
11.03.2013 02:00 4,0 C 92 % 997,8 hPa 0,0 l/m N 0,00 h 0 W/m 0,0 km/h (0 Bft)
11.03.2013 03:00 3,8 C 93 % 997,5 hPa 0,0 l/m N 0,00 h 0 W/m 1,2 km/h (1 Bft)
11.03.2013 04:00 3,8 C 94 % 997,4 hPa 0,0 l/m N 0,00 h 0 W/m 1,2 km/h (1 Bft)
11.03.2013 05:00 3,7 C 95 % 997,3 hPa 0,0 l/m N 0,00 h 0 W/m 0,1 km/h (0 Bft)
11.03.2013 06:00 3,6 C 95 % 997,5 hPa 0,0 l/m N 0,00 h 0 W/m 0,0 km/h (0 Bft)
11.03.2013 07:00 3,8 C 96 % 997,6 hPa 0,0 l/m N 0,00 h 17 W/m 0,3 km/h (0 Bft)
11.03.2013 08:00 4,3 C 96 % 997,7 hPa 0,0 l/m N 0,00 h 28 W/m 1,7 km/h (1 Bft)
11.03.2013 09:00 4,8 C 97 % 997,8 hPa 0,2 l/m N 0,00 h 43 W/m 2,0 km/h (1 Bft)
11.03.2013 10:00 5,2 C 96 % 997,9 hPa 0,2 l/m W 0,00 h 65 W/m 2,5 km/h (1 Bft)
11.03.2013 11:00 5,7 C 96 % 998,0 hPa 0,0 l/m SW 0,00 h 57 W/m 3,6 km/h (1 Bft)
11.03.2013 12:00 6,0 C 96 % 998,1 hPa 0,2 l/m S-SW 0,00 h 54 W/m 8,7 km/h (2 Bft)
11.03.2013 13:00 6,3 C 94 % 997,9 hPa 0,0 l/m W-SW 0,08 h 116 W/m 9,1 km/h (2 Bft)
11.03.2013 14:00 7,2 C 88 % 997,8 hPa 0,0 l/m W-SW 0,00 h 83 W/m 8,4 km/h (2 Bft)
11.03.2013 15:00 6,9 C 91 % 997,5 hPa 0,0 l/m W-SW 0,00 h 54 W/m 4,4 km/h (1 Bft)
11.03.2013 16:00 6,6 C 93 % 997,5 hPa 0,0 l/m NW 0,00 h 30 W/m 4,7 km/h (1 Bft)
11.03.2013 17:00 6,2 C 93 % 997,4 hPa 0,0 l/m NW 0,00 h 17 W/m 4,1 km/h (1 Bft)
11.03.2013 18:00 5,7 C 93 % 997,6 hPa 0,0 l/m NW 0,00 h 0 W/m 5,2 km/h (1 Bft)
11.03.2013 19:00 5,2 C 94 % 998,1 hPa 0,0 l/m N-NW 0,00 h 0 W/m 4,3 km/h (1 Bft)
11.03.2013 20:00 4,8 C 95 % 998,2 hPa 0,0 l/m N-NW 0,00 h 0 W/m 2,5 km/h (1 Bft)
11.03.2013 21:00 4,6 C 95 % 998,2 hPa 0,0 l/m N-NW 0,00 h 0 W/m 2,3 km/h (1 Bft)
11.03.2013 22:00 4,2 C 95 % 998,2 hPa 0,0 l/m N-NW 0,00 h 0 W/m 3,7 km/h (1 Bft)
11.03.2013 23:00 3,8 C 96 % 997,9 hPa 0,0 l/m N-NW 0,00 h 0 W/m 4,3 km/h (1 Bft)
12.03.2013 00:00 3,6 C 96 % 997,7 hPa 0,2 l/m N 0,00 h 0 W/m 2,5 km/h (1 Bft)
12.03.2013 01:00 3,6 C 97 % 997,5 hPa 0,0 l/m N-NW 0,00 h 0 W/m 3,6 km/h (1 Bft)
12.03.2013 02:00 3,7 C 97 % 997,1 hPa 0,0 l/m N 0,00 h 0 W/m 2,3 km/h (1 Bft)
12.03.2013 03:00 3,7 C 97 % 996,4 hPa 0,0 l/m N 0,00 h 0 W/m 2,7 km/h (1 Bft)
12.03.2013 04:00 3,7 C 97 % 996,1 hPa 0,0 l/m N-NW 0,00 h 0 W/m 3,7 km/h (1 Bft)
12.03.2013 05:00 3,7 C 97 % 995,7 hPa 0,0 l/m NO 0,00 h 0 W/m 5,3 km/h (1 Bft)
12.03.2013 06:00 3,4 C 98 % 995,3 hPa 0,0 l/m NO 0,00 h 5 W/m 4,4 km/h (1 Bft)
12.03.2013 07:00 3,1 C 98 % 995,3 hPa 0,0 l/m NO 0,00 h 11 W/m 4,5 km/h (1 Bft)
12.03.2013 08:00 3,0 C 98 % 995,3 hPa 0,0 l/m NO 0,00 h 67 W/m 2,8 km/h (1 Bft)
12.03.2013 09:00 3,4 C 97 % 995,3 hPa 0,0 l/m O-NO 0,00 h 130 W/m 3,7 km/h (1 Bft)
12.03.2013 10:00 4,5 C 95 % 995,1 hPa 0,0 l/m O-NO 0,00 h 222 W/m 3,2 km/h (1 Bft)
12.03.2013 11:00 6,3 C 90 % 994,9 hPa 0,0 l/m NO 0,42 h 366 W/m 7,0 km/h (2 Bft)
12.03.2013 12:00 8,0 C 85 % 994,6 hPa 0,0 l/m NO 0,33 h 357 W/m 6,6 km/h (2 Bft)
12.03.2013 13:00 9,3 C 78 % 994,1 hPa 0,0 l/m N 0,58 h 435 W/m 9,7 km/h (2 Bft)
12.03.2013 14:00 9,7 C 75 % 993,6 hPa 0,0 l/m W-NW 0,17 h 220 W/m 7,1 km/h (2 Bft)
12.03.2013 15:00 10,5 C 68 % 993,2 hPa 0,0 l/m W-NW 0,42 h 298 W/m 14,1 km/h (3 Bft)
12.03.2013 16:00 9,7 C 68 % 993,1 hPa 0,2 l/m W 0,00 h 86 W/m 19,7 km/h (3 Bft)
12.03.2013 17:00 9,0 C 72 % 993,4 hPa 0,0 l/m W 0,00 h 28 W/m 18,5 km/h (3 Bft)
12.03.2013 18:00 7,4 C 79 % 994,0 hPa 0,0 l/m NW 0,00 h 8 W/m 12,5 km/h (3 Bft)
12.03.2013 19:00 6,1 C 79 % 994,8 hPa 0,0 l/m W-NW 0,00 h 0 W/m 12,4 km/h (3 Bft)
12.03.2013 20:00 5,8 C 79 % 995,1 hPa 0,0 l/m W-NW 0,00 h 0 W/m 9,3 km/h (2 Bft)
12.03.2013 21:00 5,4 C 79 % 995,3 hPa 0,0 l/m W-NW 0,00 h 0 W/m 10,6 km/h (2 Bft)
12.03.2013 22:00 5,0 C 82 % 995,8 hPa 0,0 l/m NW 0,00 h 0 W/m 7,9 km/h (2 Bft)
12.03.2013 23:00 4,4 C 81 % 996,1 hPa 0,0 l/m NW 0,00 h 0 W/m 8,3 km/h (2 Bft)
13.03.2013 00:00 4,0 C 84 % 996,4 hPa 0,0 l/m NW 0,00 h 0 W/m 8,2 km/h (2 Bft)
13.03.2013 01:00 3,5 C 85 % 996,5 hPa 0,0 l/m N-NW 0,00 h 0 W/m 8,8 km/h (2 Bft)
13.03.2013 02:00 3,0 C 87 % 996,6 hPa 0,0 l/m N-NO 0,00 h 0 W/m 7,0 km/h (2 Bft)
13.03.2013 03:00 2,4 C 89 % 996,5 hPa 0,0 l/m NO 0,00 h 0 W/m 5,1 km/h (1 Bft)
13.03.2013 04:00 1,9 C 91 % 996,3 hPa 0,0 l/m NO 0,00 h 0 W/m 4,0 km/h (1 Bft)
13.03.2013 05:00 1,2 C 92 % 996,6 hPa 0,0 l/m NO 0,00 h 0 W/m 7,6 km/h (2 Bft)
13.03.2013 06:00 0,4 C 93 % 996,7 hPa 0,0 l/m NO 0,00 h 0 W/m 5,9 km/h (2 Bft)
13.03.2013 07:00 0,1 C 93 % 997,1 hPa 0,0 l/m NO 0,00 h 10 W/m 6,3 km/h (2 Bft)
13.03.2013 08:00 -0,2 C 93 % 997,4 hPa 0,4 l/m NO 0,00 h 33 W/m 10,5 km/h (2 Bft)
13.03.2013 09:00 -0,3 C 92 % 997,7 hPa 0,2 l/m NO 0,00 h 35 W/m 8,7 km/h (2 Bft)
13.03.2013 10:00 -0,3 C 91 % 998,0 hPa 0,0 l/m O-NO 0,00 h 54 W/m 9,5 km/h (2 Bft)
13.03.2013 11:00 -0,2 C 91 % 998,4 hPa 0,2 l/m NO 0,00 h 73 W/m 9,9 km/h (2 Bft)
13.03.2013 12:00 -0,2 C 90 % 999,0 hPa 0,0 l/m N-NO 0,00 h 95 W/m 10,6 km/h (2 Bft)
13.03.2013 13:00 -0,2 C 90 % 999,5 hPa 0,2 l/m N-NW 0,00 h 125 W/m 11,4 km/h (2 Bft)
13.03.2013 14:00 -0,2 C 90 % 999,8 hPa 0,2 l/m N-NO 0,00 h 119 W/m 10,1 km/h (2 Bft)
13.03.2013 15:00 -0,2 C 90 % 1000,2 hPa 0,0 l/m N-NO 0,00 h 136 W/m 7,9 km/h (2 Bft)
13.03.2013 16:00 0,1 C 89 % 1000,6 hPa 0,0 l/m N-NO 0,00 h 89 W/m 9,2 km/h (2 Bft)
13.03.2013 17:00 -0,1 C 86 % 1001,3 hPa 0,0 l/m N-NO 0,00 h 25 W/m 11,8 km/h (2 Bft)
13.03.2013 18:00 -1,1 C 87 % 1002,5 hPa 0,0 l/m N-NO 0,00 h 8 W/m 15,2 km/h (3 Bft)
13.03.2013 19:00 -2,1 C 87 % 1003,4 hPa 0,0 l/m N-NO 0,00 h 0 W/m 12,6 km/h (3 Bft)
13.03.2013 20:00 -2,6 C 87 % 1004,0 hPa 0,0 l/m N-NO 0,00 h 0 W/m 13,6 km/h (3 Bft)
13.03.2013 21:00 -2,9 C 86 % 1004,7 hPa 0,0 l/m N-NO 0,00 h 0 W/m 13,7 km/h (3 Bft)
13.03.2013 22:00 -3,1 C 87 % 1005,2 hPa 0,0 l/m N-NO 0,00 h 0 W/m 11,0 km/h (2 Bft)
13.03.2013 23:00 -3,2 C 89 % 1005,6 hPa 0,2 l/m N-NO 0,00 h 0 W/m 9,1 km/h (2 Bft)
14.03.2013 00:00 -3,6 C 90 % 1005,9 hPa 0,0 l/m N-NO 0,00 h 0 W/m 9,4 km/h (2 Bft)
14.03.2013 01:00 -3,9 C 90 % 1006,4 hPa 0,0 l/m N-NO 0,00 h 0 W/m 8,4 km/h (2 Bft)
14.03.2013 02:00 -4,3 C 86 % 1006,8 hPa 0,0 l/m N 0,00 h 0 W/m 10,1 km/h (2 Bft)
14.03.2013 03:00 -4,6 C 81 % 1007,0 hPa 0,0 l/m N 0,00 h 0 W/m 11,0 km/h (2 Bft)
14.03.2013 04:00 -5,2 C 80 % 1007,2 hPa 0,0 l/m N 0,00 h 0 W/m 8,4 km/h (2 Bft)
14.03.2013 05:00 -6,0 C 82 % 1007,4 hPa 0,0 l/m N 0,00 h 0 W/m 4,8 km/h (1 Bft)
14.03.2013 06:00 -6,9 C 83 % 1007,9 hPa 0,0 l/m N 0,00 h 9 W/m 0,5 km/h (0 Bft)
14.03.2013 07:00 -7,4 C 86 % 1008,4 hPa 0,0 l/m N 0,00 h 60 W/m 1,5 km/h (1 Bft)
14.03.2013 08:00 -6,3 C 88 % 1008,7 hPa 0,0 l/m N 0,92 h 228 W/m 6,5 km/h (2 Bft)
14.03.2013 09:00 -4,1 C 79 % 1009,1 hPa 0,0 l/m NO 0,67 h 276 W/m 4,8 km/h (1 Bft)
14.03.2013 10:00 -2,8 C 71 % 1009,3 hPa 0,0 l/m O-NO 0,83 h 476 W/m 9,3 km/h (2 Bft)
14.03.2013 11:00 -1,7 C 65 % 1009,2 hPa 0,0 l/m O-SO 0,50 h 359 W/m 12,4 km/h (3 Bft)
14.03.2013 12:00 -1,4 C 65 % 1008,9 hPa 0,0 l/m N 0,17 h 296 W/m 10,1 km/h (2 Bft)
14.03.2013 13:00 -1,1 C 66 % 1008,5 hPa 0,0 l/m N-NO 0,17 h 264 W/m 10,7 km/h (2 Bft)
14.03.2013 14:00 -0,6 C 66 % 1008,1 hPa 0,0 l/m N-NO 0,33 h 323 W/m 14,2 km/h (3 Bft)
14.03.2013 15:00 -0,8 C 69 % 1008,2 hPa 0,0 l/m NO 0,25 h 209 W/m 12,4 km/h (3 Bft)
14.03.2013 16:00 -0,2 C 61 % 1008,6 hPa 0,0 l/m N-NO 1,00 h 329 W/m 13,6 km/h (3 Bft)
14.03.2013 17:00 -0,5 C 61 % 1009,0 hPa 0,0 l/m O-NO 0,33 h 75 W/m 10,1 km/h (2 Bft)
14.03.2013 18:00 -1,6 C 67 % 1009,5 hPa 0,0 l/m N 0,08 h 9 W/m 2,1 km/h (1 Bft)
14.03.2013 19:00 -2,4 C 74 % 1010,1 hPa 0,0 l/m O-NO 0,00 h 0 W/m 3,9 km/h (1 Bft)
14.03.2013 20:00 -2,8 C 80 % 1010,6 hPa 0,0 l/m N 0,00 h 0 W/m 3,3 km/h (1 Bft)
14.03.2013 21:00 -3,3 C 84 % 1010,7 hPa 0,0 l/m N 0,00 h 0 W/m 1,1 km/h (0 Bft)
14.03.2013 22:00 -4,1 C 86 % 1010,7 hPa 0,0 l/m N 0,00 h 0 W/m 0,9 km/h (0 Bft)
14.03.2013 23:00 -4,8 C 87 % 1010,8 hPa 0,0 l/m N 0,00 h 0 W/m 0,8 km/h (0 Bft)
15.03.2013 00:00 -5,0 C 90 % 1010,9 hPa 0,0 l/m N 0,00 h 0 W/m 0,4 km/h (0 Bft)
15.03.2013 01:00 -4,8 C 91 % 1011,2 hPa 0,0 l/m N 0,00 h 0 W/m 2,4 km/h (1 Bft)
15.03.2013 02:00 -4,6 C 91 % 1011,3 hPa 0,0 l/m NO 0,00 h 0 W/m 4,5 km/h (1 Bft)
15.03.2013 03:00 -4,9 C 91 % 1011,4 hPa 0,0 l/m N-NO 0,00 h 0 W/m 2,9 km/h (1 Bft)
15.03.2013 04:00 -5,1 C 90 % 1011,6 hPa 0,0 l/m N 0,00 h 0 W/m 2,7 km/h (1 Bft)
15.03.2013 05:00 -4,9 C 91 % 1012,1 hPa 0,0 l/m N 0,00 h 0 W/m 3,6 km/h (1 Bft)
15.03.2013 06:00 -4,7 C 91 % 1012,6 hPa 0,0 l/m N 0,00 h 5 W/m 2,9 km/h (1 Bft)
15.03.2013 07:00 -4,6 C 92 % 1013,4 hPa 0,2 l/m N 0,00 h 34 W/m 3,9 km/h (1 Bft)
15.03.2013 08:00 -4,1 C 90 % 1014,2 hPa 0,0 l/m N 0,42 h 168 W/m 4,8 km/h (1 Bft)
15.03.2013 09:00 -3,5 C 84 % 1014,9 hPa 0,0 l/m N 0,25 h 245 W/m 5,7 km/h (1 Bft)
15.03.2013 10:00 -3,0 C 82 % 1015,3 hPa 0,0 l/m N 0,25 h 221 W/m 7,4 km/h (2 Bft)
15.03.2013 11:00 -3,2 C 83 % 1015,8 hPa 0,0 l/m NW 0,42 h 329 W/m 13,3 km/h (3 Bft)
15.03.2013 12:00 -1,7 C 73 % 1016,0 hPa 0,0 l/m NW 0,58 h 497 W/m 12,5 km/h (3 Bft)
15.03.2013 13:00 -0,7 C 64 % 1015,7 hPa 0,0 l/m W-NW 0,58 h 505 W/m 13,7 km/h (3 Bft)
15.03.2013 14:00 0,7 C 53 % 1015,4 hPa 0,0 l/m W-NW 0,92 h 607 W/m 12,6 km/h (3 Bft)
15.03.2013 15:00 0,8 C 49 % 1015,6 hPa 0,0 l/m N-NW 1,00 h 481 W/m 18,0 km/h (3 Bft)
15.03.2013 16:00 0,3 C 43 % 1016,0 hPa 0,0 l/m N-NO 1,00 h 333 W/m 16,4 km/h (3 Bft)
15.03.2013 17:00 -0,3 C 45 % 1016,3 hPa 0,0 l/m N 0,75 h 116 W/m 8,2 km/h (2 Bft)
15.03.2013 18:00 -0,8 C 50 % 1016,9 hPa 0,0 l/m N 0,08 h 11 W/m 0,7 km/h (0 Bft)
15.03.2013 19:00 -2,0 C 57 % 1017,7 hPa 0,0 l/m N 0,00 h 0 W/m 0,0 km/h (0 Bft)
15.03.2013 20:00 -3,1 C 64 % 1018,2 hPa 0,0 l/m N 0,00 h 0 W/m 0,0 km/h (0 Bft)
15.03.2013 21:00 -4,0 C 71 % 1018,3 hPa 0,0 l/m N 0,00 h 0 W/m 0,4 km/h (0 Bft)
15.03.2013 22:00 -4,6 C 76 % 1018,6 hPa 0,0 l/m N 0,00 h 0 W/m 0,4 km/h (0 Bft)
15.03.2013 23:00 -5,1 C 79 % 1018,6 hPa 0,0 l/m N 0,00 h 0 W/m 0,4 km/h (0 Bft)
16.03.2013 00:00 -5,5 C 82 % 1018,5 hPa 0,0 l/m N 0,00 h 0 W/m 1,3 km/h (1 Bft)
16.03.2013 01:00 -5,6 C 83 % 1018,5 hPa 0,0 l/m SW 0,00 h 0 W/m 4,3 km/h (1 Bft)
16.03.2013 02:00 -5,3 C 83 % 1018,5 hPa 0,0 l/m SW 0,00 h 0 W/m 5,3 km/h (1 Bft)
16.03.2013 03:00 -5,6 C 82 % 1018,4 hPa 0,0 l/m N 0,00 h 0 W/m 2,5 km/h (1 Bft)
16.03.2013 04:00 -6,2 C 82 % 1018,2 hPa 0,0 l/m N 0,00 h 0 W/m 0,1 km/h (0 Bft)
16.03.2013 05:00 -6,7 C 83 % 1018,3 hPa 0,0 l/m N 0,00 h 0 W/m 0,3 km/h (0 Bft)
16.03.2013 06:00 -7,2 C 85 % 1018,2 hPa 0,0 l/m N 0,00 h 10 W/m 0,0 km/h (0 Bft)
16.03.2013 07:00 -7,3 C 87 % 1018,2 hPa 0,0 l/m SW 0,17 h 70 W/m 1,9 km/h (1 Bft)
16.03.2013 08:00 -5,2 C 80 % 1017,7 hPa 0,0 l/m S-SW 1,00 h 249 W/m 7,8 km/h (2 Bft)
16.03.2013 09:00 -1,3 C 59 % 1017,4 hPa 0,0 l/m S 1,00 h 423 W/m 9,5 km/h (2 Bft)
16.03.2013 10:00 0,9 C 50 % 1016,7 hPa 0,0 l/m S-SO 1,00 h 546 W/m 7,3 km/h (2 Bft)
16.03.2013 11:00 3,4 C 40 % 1015,8 hPa 0,0 l/m O-SO 1,00 h 651 W/m 12,8 km/h (3 Bft)
16.03.2013 12:00 5,5 C 34 % 1014,8 hPa 0,0 l/m O-SO 1,00 h 654 W/m 15,0 km/h (3 Bft)
16.03.2013 13:00 6,4 C 34 % 1013,6 hPa 0,0 l/m O 1,00 h 635 W/m 17,8 km/h (3 Bft)
16.03.2013 14:00 7,0 C 36 % 1012,4 hPa 0,0 l/m O-SO 1,00 h 466 W/m 18,4 km/h (3 Bft)
16.03.2013 15:00 6,9 C 38 % 1011,4 hPa 0,0 l/m O 0,75 h 280 W/m 18,4 km/h (3 Bft)
16.03.2013 16:00 6,3 C 42 % 1010,5 hPa 0,0 l/m O 0,00 h 117 W/m 19,0 km/h (3 Bft)
16.03.2013 17:00 5,4 C 47 % 1010,4 hPa 0,0 l/m O-SO 0,00 h 38 W/m 9,8 km/h (2 Bft)
16.03.2013 18:00 4,6 C 49 % 1010,2 hPa 0,0 l/m O 0,00 h 9 W/m 4,7 km/h (1 Bft)
16.03.2013 19:00 3,8 C 52 % 1010,0 hPa 0,0 l/m O-NO 0,00 h 0 W/m 4,0 km/h (1 Bft)
16.03.2013 20:00 3,1 C 55 % 1009,6 hPa 0,0 l/m N 0,00 h 0 W/m 3,3 km/h (1 Bft)
16.03.2013 21:00 2,6 C 59 % 1009,1 hPa 0,0 l/m O 0,00 h 0 W/m 3,1 km/h (1 Bft)
16.03.2013 22:00 1,7 C 64 % 1008,8 hPa 0,0 l/m N 0,00 h 0 W/m 1,6 km/h (1 Bft)
16.03.2013 23:00 0,6 C 70 % 1008,7 hPa 0,0 l/m N 0,00 h 0 W/m 1,7 km/h (1 Bft)
17.03.2013 00:00 0,1 C 73 % 1008,9 hPa 0,0 l/m N-NO 0,00 h 0 W/m 4,5 km/h (1 Bft)
17.03.2013 01:00 -0,2 C 75 % 1008,7 hPa 0,0 l/m N 0,00 h 0 W/m 1,2 km/h (1 Bft)
17.03.2013 02:00 -0,5 C 77 % 1008,1 hPa 0,0 l/m N 0,00 h 0 W/m 1,5 km/h (1 Bft)
17.03.2013 03:00 -0,8 C 79 % 1007,2 hPa 0,0 l/m N 0,00 h 0 W/m 2,1 km/h (1 Bft)
17.03.2013 04:00 -0,9 C 80 % 1006,4 hPa 0,0 l/m N 0,00 h 0 W/m 0,1 km/h (0 Bft)
17.03.2013 05:00 -0,9 C 81 % 1006,0 hPa 0,0 l/m N 0,00 h 0 W/m 0,0 km/h (0 Bft)
17.03.2013 06:00 -0,8 C 82 % 1005,6 hPa 0,0 l/m N 0,00 h 7 W/m 0,7 km/h (0 Bft)
17.03.2013 07:00 -0,1 C 81 % 1005,2 hPa 0,0 l/m NO 0,00 h 33 W/m 6,2 km/h (2 Bft)
17.03.2013 08:00 2,1 C 74 % 1004,7 hPa 0,0 l/m S-SW 0,00 h 37 W/m 9,1 km/h (2 Bft)
17.03.2013 09:00 3,1 C 75 % 1004,5 hPa 0,0 l/m S-SW 0,00 h 54 W/m 15,8 km/h (3 Bft)
17.03.2013 10:00 4,3 C 79 % 1003,7 hPa 0,0 l/m O-SO 0,25 h 246 W/m 10,3 km/h (2 Bft)
17.03.2013 11:00 6,9 C 70 % 1002,5 hPa 0,0 l/m O-SO 0,42 h 316 W/m 11,0 km/h (2 Bft)
17.03.2013 12:00 8,9 C 57 % 1001,5 hPa 0,0 l/m SO 0,25 h 218 W/m 14,6 km/h (3 Bft)
17.03.2013 13:00 9,4 C 53 % 1000,1 hPa 0,0 l/m SO 0,00 h 198 W/m 14,5 km/h (3 Bft)
17.03.2013 14:00 9,7 C 56 % 998,9 hPa 0,0 l/m O-SO 0,00 h 125 W/m 13,0 km/h (3 Bft)
17.03.2013 15:00 9,6 C 59 % 998,5 hPa 0,0 l/m SO 0,00 h 95 W/m 13,0 km/h (3 Bft)
17.03.2013 16:00 9,5 C 45 % 998,3 hPa 0,0 l/m S-SW 0,00 h 52 W/m 21,7 km/h (4 Bft)
17.03.2013 17:00 9,0 C 46 % 998,0 hPa 0,0 l/m W-SW 0,00 h 23 W/m 9,8 km/h (2 Bft)
17.03.2013 18:00 8,5 C 54 % 997,5 hPa 0,0 l/m SW 0,00 h 6 W/m 4,9 km/h (1 Bft)
17.03.2013 19:00 6,9 C 69 % 996,8 hPa 0,0 l/m N 0,00 h 0 W/m 2,1 km/h (1 Bft)
17.03.2013 20:00 5,6 C 72 % 996,8 hPa 0,0 l/m N 0,00 h 0 W/m 1,1 km/h (0 Bft)
17.03.2013 21:00 5,3 C 62 % 996,6 hPa 0,0 l/m SW 0,00 h 0 W/m 4,4 km/h (1 Bft)
17.03.2013 22:00 6,5 C 50 % 996,7 hPa 0,0 l/m W 0,00 h 0 W/m 7,1 km/h (2 Bft)
17.03.2013 23:00 6,2 C 58 % 997,0 hPa 0,0 l/m W 0,00 h 0 W/m 1,6 km/h (1 Bft)
Min-Datum _ 14.03.13 16.03.13 12.03.13 - - - - 11.03.13
_ Min-Zeit 07:20 11:55 15:30 - - - - 00:05
Minimum _ -7,6 C 32 % 993,1 hPa - - - - 0,0 km/h (0 Bft)
Max-Datum _ 12.03.13 12.03.13 15.03.13 13.03.13 - 11.03.13 15.03.13 17.03.13
_ Max-Zeit 15:35 04:00 22:35 08:00 - 13:50 12:35 16:20
Maximum _ 11,2 C 98 % 1018,8 hPa 0,4 l/m - 0,08 h 765 W/m 33,8 km/h
SW (5 Bft)
Durchschnitt _ 1,3 C 79 % 1004,6 hPa #2,6 l/m N-NO #22:20 h 177 W/m 6,8 km/h (2 Bft)